createdAt,value
2023-03-05T00:03:03.108Z,2.03
2023-03-05T00:06:12.634Z,1.91
2023-03-05T00:09:21.648Z,1.83
2023-03-05T00:12:52.591Z,1.88
2023-03-05T00:16:20.458Z,1.86
2023-03-05T00:19:09.393Z,1.90
2023-03-05T00:22:37.267Z,1.93
2023-03-05T00:26:05.278Z,1.95
2023-03-05T00:29:33.078Z,1.92
2023-03-05T00:33:00.625Z,1.92
2023-03-05T00:36:09.166Z,1.88
2023-03-05T00:39:36.735Z,1.78
2023-03-05T00:43:04.495Z,1.68
2023-03-05T00:46:32.147Z,1.65
2023-03-05T00:49:59.876Z,1.56
2023-03-05T00:53:27.602Z,1.48
2023-03-05T00:56:55.051Z,1.43
2023-03-05T01:00:22.922Z,1.34
2023-03-05T01:03:50.572Z,1.25
2023-03-05T01:07:18.326Z,1.14
2023-03-05T01:10:46.303Z,1.04
2023-03-05T01:14:13.905Z,0.98
2023-03-05T01:17:41.845Z,0.88
2023-03-05T01:21:09.477Z,0.80
2023-03-05T01:24:37.254Z,0.68
2023-03-05T01:28:05.143Z,0.62
2023-03-05T01:31:33.742Z,0.59
2023-03-05T01:35:01.210Z,0.54
2023-03-05T01:38:29.136Z,0.52
2023-03-05T01:41:56.766Z,0.49
2023-03-05T01:45:24.448Z,0.44
2023-03-05T01:48:51.961Z,0.42
2023-03-05T01:51:40.093Z,0.39
2023-03-05T01:55:08.220Z,0.41
2023-03-05T01:58:36.180Z,0.36
2023-03-05T02:02:03.911Z,0.32
2023-03-05T02:05:31.823Z,0.31
2023-03-05T02:08:59.521Z,0.29
2023-03-05T02:12:27.595Z,0.20
2023-03-05T02:15:55.374Z,0.15
2023-03-05T02:19:22.946Z,0.12
2023-03-05T02:22:50.538Z,0.06
2023-03-05T02:26:18.457Z,0.06
2023-03-05T02:29:46.282Z,0.03
2023-03-05T02:33:13.922Z,-0.06
2023-03-05T02:36:41.919Z,-0.12
2023-03-05T02:40:09.572Z,-0.16
2023-03-05T02:43:37.281Z,-0.17
2023-03-05T02:46:27.108Z,-0.17
2023-03-05T02:49:55.029Z,-0.21
2023-03-05T02:53:03.714Z,-0.23
2023-03-05T02:56:31.793Z,-0.23
2023-03-05T02:59:59.310Z,-0.31
2023-03-05T03:03:27.041Z,-0.35
2023-03-05T03:06:54.546Z,-0.35
2023-03-05T03:10:22.331Z,-0.39
2023-03-05T03:13:50.241Z,-0.40
2023-03-05T03:17:18.382Z,-0.43
2023-03-05T03:20:46.311Z,-0.49
2023-03-05T03:24:13.896Z,-0.51
2023-03-05T03:27:41.972Z,-0.54
2023-03-05T03:30:50.771Z,-0.54
2023-03-05T03:34:18.562Z,-0.58
2023-03-05T03:37:46.522Z,-0.60
2023-03-05T03:41:13.997Z,-0.60
2023-03-05T03:44:41.808Z,-0.64
2023-03-05T03:48:09.527Z,-0.63
2023-03-05T03:51:17.743Z,-0.60
2023-03-05T03:54:45.325Z,-0.62
2023-03-05T03:57:34.053Z,-0.64
2023-03-05T04:01:01.821Z,-0.64
2023-03-05T04:04:29.439Z,-0.62
2023-03-05T04:07:37.616Z,-0.59
2023-03-05T04:11:05.494Z,-0.58
2023-03-05T04:14:33.165Z,-0.55
2023-03-05T04:18:01.379Z,-0.54
2023-03-05T04:21:10.258Z,-0.57
2023-03-05T04:24:38.352Z,-0.57
2023-03-05T04:28:06.218Z,-0.63
2023-03-05T04:31:34.022Z,-0.62
2023-03-05T04:35:02.678Z,-0.63
2023-03-05T04:38:30.353Z,-0.63
2023-03-05T04:41:58.595Z,-0.61
2023-03-05T04:45:26.316Z,-0.62
2023-03-05T04:48:53.929Z,-0.71
2023-03-05T04:52:23.030Z,-0.74
2023-03-05T04:55:50.939Z,-0.79
2023-03-05T04:59:19.128Z,-0.86
2023-03-05T05:02:28.476Z,-0.86
2023-03-05T05:05:56.045Z,-0.86
2023-03-05T05:09:23.770Z,-0.97
2023-03-05T05:12:51.486Z,-0.94
2023-03-05T05:16:19.430Z,-0.92
2023-03-05T05:19:47.308Z,-0.96
2023-03-05T05:23:15.481Z,-0.94
2023-03-05T05:26:43.035Z,-0.92
2023-03-05T05:30:10.603Z,-0.96
2023-03-05T05:33:38.305Z,-0.99
2023-03-05T05:37:06.211Z,-0.97
2023-03-05T05:40:33.738Z,-0.89
2023-03-05T05:44:01.332Z,-0.82
2023-03-05T05:47:29.042Z,-0.79
2023-03-05T05:50:57.195Z,-0.76
2023-03-05T05:54:26.890Z,-0.71
2023-03-05T05:57:16.673Z,-0.69
2023-03-05T06:00:44.367Z,-0.62
2023-03-05T06:04:12.090Z,-0.59
2023-03-05T06:07:39.916Z,-0.56
2023-03-05T06:11:07.429Z,-0.52
2023-03-05T06:14:36.323Z,-0.42
2023-03-05T06:18:03.988Z,-0.37
2023-03-05T06:21:32.099Z,-0.36
2023-03-05T06:24:59.716Z,-0.28
2023-03-05T06:28:27.456Z,-0.18
2023-03-05T06:31:55.152Z,-0.11
2023-03-05T06:35:04.045Z,-0.05
2023-03-05T06:38:32.220Z,-0.04
2023-03-05T06:42:00.183Z,0.08
2023-03-05T06:45:27.866Z,0.09
2023-03-05T06:48:56.085Z,0.13
2023-03-05T06:52:23.942Z,0.23
2023-03-05T06:55:51.652Z,0.26
2023-03-05T06:59:19.400Z,0.26
2023-03-05T07:02:47.136Z,0.34
2023-03-05T07:06:14.893Z,0.38
2023-03-05T07:09:42.382Z,0.52
2023-03-05T07:13:10.380Z,0.59
2023-03-05T07:16:18.310Z,0.63
2023-03-05T07:19:46.016Z,0.73
2023-03-05T07:23:14.010Z,0.83
2023-03-05T07:26:41.715Z,0.89
2023-03-05T07:30:09.473Z,1.03
2023-03-05T07:33:37.319Z,1.15
2023-03-05T07:37:05.002Z,1.28
2023-03-05T07:40:32.708Z,1.39
2023-03-05T07:44:00.569Z,1.52
2023-03-05T07:47:28.415Z,1.54
2023-03-05T07:50:55.847Z,1.73
2023-03-05T07:54:23.633Z,2.00
2023-03-05T07:57:51.362Z,2.21
2023-03-05T08:00:59.650Z,2.34
2023-03-05T08:04:27.519Z,2.54
2023-03-05T08:07:35.894Z,2.63
2023-03-05T08:11:04.389Z,2.78
2023-03-05T08:14:31.423Z,2.90
2023-03-05T08:17:59.002Z,2.97
2023-03-05T08:21:26.726Z,3.18
2023-03-05T08:24:54.869Z,3.31
2023-03-05T08:28:22.574Z,3.37
2023-03-05T08:31:50.240Z,3.51
2023-03-05T08:35:18.019Z,3.75
2023-03-05T08:38:45.730Z,3.89
2023-03-05T08:42:13.849Z,3.86
2023-03-05T08:45:41.859Z,4.14
2023-03-05T08:49:10.070Z,4.19
2023-03-05T08:52:37.895Z,4.12
2023-03-05T08:56:05.800Z,4.25
2023-03-05T08:59:33.717Z,4.36
2023-03-05T09:03:01.847Z,4.45
2023-03-05T09:06:29.335Z,4.83
2023-03-05T09:09:57.077Z,4.73
2023-03-05T09:13:24.746Z,4.91
2023-03-05T09:16:52.534Z,5.15
2023-03-05T09:20:20.037Z,5.15
2023-03-05T09:23:28.827Z,5.16
2023-03-05T09:26:57.032Z,5.54
2023-03-05T09:30:05.968Z,5.84
2023-03-05T09:33:33.769Z,5.94
2023-03-05T09:37:01.701Z,6.17
2023-03-05T09:40:30.582Z,6.11
2023-03-05T09:43:58.294Z,5.95
2023-03-05T09:47:07.230Z,6.18
2023-03-05T09:50:35.132Z,6.38
2023-03-05T09:54:03.142Z,6.55
2023-03-05T09:57:30.465Z,6.46
2023-03-05T10:00:58.517Z,6.41
2023-03-05T10:04:26.398Z,6.53
2023-03-05T10:07:54.071Z,6.46
2023-03-05T10:11:22.021Z,6.44
2023-03-05T10:14:31.000Z,6.53
2023-03-05T10:17:59.009Z,6.77
2023-03-05T10:21:26.901Z,7.01
2023-03-05T10:24:55.013Z,6.94
2023-03-05T10:28:23.054Z,7.10
2023-03-05T10:31:50.651Z,7.40
2023-03-05T10:35:18.634Z,7.49
2023-03-05T10:38:46.306Z,7.22
2023-03-05T10:42:14.162Z,7.52
2023-03-05T10:45:41.980Z,7.61
2023-03-05T10:49:09.678Z,7.61
2023-03-05T10:52:38.466Z,7.67
2023-03-05T10:56:06.766Z,7.94
2023-03-05T10:59:34.609Z,8.12
2023-03-05T11:03:02.441Z,8.15
2023-03-05T11:06:30.177Z,8.36
2023-03-05T11:09:57.991Z,8.39
2023-03-05T11:13:25.696Z,8.52
2023-03-05T11:16:53.431Z,8.60
2023-03-05T11:20:21.488Z,8.88
2023-03-05T11:23:49.248Z,9.02
2023-03-05T11:27:17.305Z,8.94
2023-03-05T11:30:45.146Z,8.72
2023-03-05T11:34:12.948Z,8.74
2023-03-05T11:37:40.631Z,8.76
2023-03-05T11:41:08.444Z,8.54
2023-03-05T11:44:36.295Z,8.60
2023-03-05T11:48:04.284Z,8.44
2023-03-05T11:51:32.015Z,8.46
2023-03-05T11:54:59.926Z,8.39
2023-03-05T11:58:27.510Z,8.29
2023-03-05T12:01:55.745Z,8.08
2023-03-05T12:05:23.672Z,8.04
2023-03-05T12:08:51.702Z,8.13
2023-03-05T12:12:19.704Z,8.28
2023-03-05T12:15:47.721Z,8.17
2023-03-05T12:19:18.103Z,8.33
2023-03-05T12:22:43.319Z,8.25
2023-03-05T12:26:10.860Z,8.35
2023-03-05T12:29:38.871Z,8.17
2023-03-05T12:33:06.656Z,8.22
2023-03-05T12:36:34.912Z,8.31
2023-03-05T12:40:02.806Z,8.21
2023-03-05T12:43:31.356Z,8.33
2023-03-05T12:47:01.870Z,8.36
2023-03-05T12:50:29.757Z,8.26
2023-03-05T12:53:57.527Z,8.19
2023-03-05T12:57:25.354Z,8.02
2023-03-05T13:00:53.603Z,7.84
2023-03-05T13:04:21.355Z,7.74
2023-03-05T13:07:29.999Z,7.59
2023-03-05T13:10:19.624Z,7.51
2023-03-05T13:13:48.092Z,7.44
2023-03-05T13:17:15.776Z,7.27
2023-03-05T13:20:43.599Z,7.31
2023-03-05T13:24:13.231Z,7.27
2023-03-05T13:27:39.872Z,7.32
2023-03-05T13:31:07.666Z,7.31
2023-03-05T13:34:15.338Z,7.34
2023-03-05T13:37:24.174Z,7.30
2023-03-05T13:40:51.863Z,7.25
2023-03-05T13:44:19.668Z,7.26
2023-03-05T13:47:47.562Z,7.32
2023-03-05T13:51:15.708Z,7.30
2023-03-05T13:54:43.074Z,7.23
2023-03-05T13:58:11.173Z,7.29
2023-03-05T14:01:47.684Z,7.17
2023-03-05T14:05:15.760Z,7.18
2023-03-05T14:08:44.119Z,7.20
2023-03-05T14:12:11.866Z,7.38
2023-03-05T14:15:01.902Z,7.39
2023-03-05T14:18:10.919Z,7.48
2023-03-05T14:21:38.924Z,7.55
2023-03-05T14:24:47.016Z,7.50
2023-03-05T14:28:15.152Z,7.65
2023-03-05T14:31:04.478Z,7.74
2023-03-05T14:34:33.479Z,7.75
2023-03-05T14:38:01.331Z,7.86
2023-03-05T14:41:29.276Z,7.95
2023-03-05T14:44:57.170Z,8.07
2023-03-05T14:48:24.837Z,8.03
2023-03-05T14:51:53.014Z,7.92
2023-03-05T14:55:21.926Z,7.77
2023-03-05T14:58:49.684Z,7.57
2023-03-05T15:02:17.863Z,7.54
2023-03-05T15:05:45.853Z,7.38
2023-03-05T15:09:13.823Z,7.16
2023-03-05T15:12:23.424Z,7.09
2023-03-05T15:15:32.414Z,6.96
2023-03-05T15:19:00.421Z,6.91
2023-03-05T15:22:29.246Z,6.88
2023-03-05T15:25:57.104Z,6.81
2023-03-05T15:29:24.916Z,6.74
2023-03-05T15:32:52.842Z,6.63
2023-03-05T15:36:20.738Z,6.65
2023-03-05T15:39:49.616Z,6.63
2023-03-05T15:43:17.546Z,6.59
2023-03-05T15:46:46.119Z,6.59
2023-03-05T15:50:13.997Z,6.54
2023-03-05T15:53:42.004Z,6.49
2023-03-05T15:57:10.005Z,6.47
2023-03-05T16:00:38.166Z,6.42
2023-03-05T16:04:06.519Z,6.32
2023-03-05T16:07:35.677Z,6.33
2023-03-05T16:11:03.915Z,6.31
2023-03-05T16:14:33.354Z,6.27
2023-03-05T16:18:01.194Z,6.20
2023-03-05T16:21:29.323Z,6.20
2023-03-05T16:24:57.291Z,6.08
2023-03-05T16:28:25.227Z,6.02
2023-03-05T16:31:53.026Z,6.05
2023-03-05T16:35:20.911Z,6.07
2023-03-05T16:38:48.796Z,6.04
2023-03-05T16:42:16.712Z,6.01
2023-03-05T16:45:44.686Z,5.95
2023-03-05T16:49:12.759Z,5.94
2023-03-05T16:52:40.861Z,5.87
2023-03-05T16:56:08.757Z,5.87
2023-03-05T16:59:36.993Z,5.88
2023-03-05T17:02:46.198Z,5.86
2023-03-05T17:06:14.452Z,5.88
2023-03-05T17:09:43.373Z,5.92
2023-03-05T17:13:11.331Z,5.90
2023-03-05T17:16:39.190Z,5.98
2023-03-05T17:20:07.216Z,5.94
2023-03-05T17:23:15.733Z,5.88
2023-03-05T17:26:24.712Z,5.80
2023-03-05T17:29:34.103Z,5.73
2023-03-05T17:33:02.128Z,5.78
2023-03-05T17:36:30.433Z,5.87
2023-03-05T17:39:39.282Z,5.89
2023-03-05T17:43:08.214Z,5.83
2023-03-05T17:46:36.093Z,5.78
2023-03-05T17:50:07.165Z,5.75
2023-03-05T17:53:17.268Z,5.73
2023-03-05T17:56:45.494Z,5.68
2023-03-05T18:00:13.324Z,5.67
2023-03-05T18:03:22.305Z,5.67
2023-03-05T18:06:50.404Z,5.60
2023-03-05T18:10:18.354Z,5.59
2023-03-05T18:13:46.341Z,5.60
2023-03-05T18:17:14.402Z,5.59
2023-03-05T18:20:23.464Z,5.60
2023-03-05T18:23:51.312Z,5.61
2023-03-05T18:27:07.430Z,5.57
2023-03-05T18:30:35.482Z,5.54
2023-03-05T18:34:03.373Z,5.50
2023-03-05T18:37:31.293Z,5.48
2023-03-05T18:40:39.296Z,5.41
2023-03-05T18:44:07.678Z,5.42
2023-03-05T18:47:35.521Z,5.43
2023-03-05T18:51:05.174Z,5.44
2023-03-05T18:54:13.372Z,5.45
2023-03-05T18:57:22.215Z,5.43
2023-03-05T19:00:50.273Z,5.46
2023-03-05T19:04:18.392Z,5.44
2023-03-05T19:07:46.443Z,5.47
2023-03-05T19:10:54.322Z,5.44
2023-03-05T19:14:22.363Z,5.39
2023-03-05T19:17:50.193Z,5.40
2023-03-05T19:21:18.631Z,5.40
2023-03-05T19:24:47.047Z,5.37
2023-03-05T19:28:14.815Z,5.33
2023-03-05T19:30:46.611Z,5.34
2023-03-05T19:33:16.178Z,5.34
2023-03-05T19:36:24.177Z,5.34
2023-03-05T19:39:51.954Z,5.36
2023-03-05T19:42:19.722Z,5.36
2023-03-05T19:45:28.605Z,5.42
2023-03-05T19:48:05.429Z,5.42
2023-03-05T19:51:15.207Z,5.41
2023-03-05T19:54:25.834Z,5.44
2023-03-05T19:57:54.588Z,5.45
2023-03-05T20:01:23.530Z,5.49
2023-03-05T20:04:51.581Z,5.57
2023-03-05T20:08:20.072Z,5.61
2023-03-05T20:11:47.986Z,5.67
2023-03-05T20:14:57.063Z,5.73
2023-03-05T20:18:07.104Z,5.70
2023-03-05T20:21:34.648Z,5.66
2023-03-05T20:24:46.547Z,5.65
2023-03-05T20:28:15.201Z,5.62
2023-03-05T20:31:06.135Z,5.64
2023-03-05T20:34:14.369Z,5.63
2023-03-05T20:37:43.238Z,5.63
2023-03-05T20:41:17.135Z,5.70
2023-03-05T20:44:45.305Z,5.69
2023-03-05T20:48:13.302Z,5.68
2023-03-05T20:51:41.251Z,5.72
2023-03-05T20:54:51.433Z,5.70
2023-03-05T20:58:19.428Z,5.66
2023-03-05T21:01:47.851Z,5.74
2023-03-05T21:05:11.447Z,5.80
2023-03-05T21:08:40.007Z,5.85
2023-03-05T21:12:07.893Z,5.86
2023-03-05T21:15:35.865Z,5.88
2023-03-05T21:19:04.015Z,5.81
2023-03-05T21:22:31.893Z,5.78
2023-03-05T21:25:48.553Z,5.72
2023-03-05T21:29:16.479Z,5.78
2023-03-05T21:32:05.851Z,5.80
2023-03-05T21:35:34.243Z,5.80
2023-03-05T21:39:02.734Z,5.62
2023-03-05T21:42:00.470Z,5.63
2023-03-05T21:45:28.811Z,5.65
2023-03-05T21:48:56.992Z,5.68
2023-03-05T21:52:25.162Z,5.74
2023-03-05T21:55:53.114Z,5.79
2023-03-05T21:59:21.047Z,5.71
2023-03-05T22:02:50.074Z,5.70
2023-03-05T22:06:02.174Z,5.72
2023-03-05T22:09:29.964Z,5.64
2023-03-05T22:12:38.961Z,5.59
2023-03-05T22:15:56.524Z,5.57
2023-03-05T22:19:05.842Z,5.55
2023-03-05T22:22:33.921Z,5.50
2023-03-05T22:26:01.847Z,5.47
2023-03-05T22:29:30.003Z,5.36
2023-03-05T22:32:19.070Z,5.35
2023-03-05T22:35:47.112Z,5.37
2023-03-05T22:39:14.997Z,5.36
2023-03-05T22:42:42.927Z,5.39
2023-03-05T22:46:10.987Z,5.42
2023-03-05T22:49:38.959Z,5.39
2023-03-05T22:52:55.004Z,5.38
2023-03-05T22:56:23.440Z,5.35
2023-03-05T22:59:51.541Z,5.36
2023-03-05T23:03:19.606Z,5.35
2023-03-05T23:06:47.494Z,5.39
2023-03-05T23:10:15.520Z,5.36
2023-03-05T23:13:43.541Z,5.41
2023-03-05T23:17:11.363Z,5.40
2023-03-05T23:20:39.952Z,5.47
2023-03-05T23:24:08.300Z,5.42
2023-03-05T23:27:36.285Z,5.41
2023-03-05T23:31:04.496Z,5.34
2023-03-05T23:34:32.500Z,5.25
2023-03-05T23:38:00.531Z,5.18
2023-03-05T23:41:28.587Z,5.15
2023-03-05T23:44:56.655Z,5.11
2023-03-05T23:48:24.924Z,5.10
2023-03-05T23:51:52.979Z,5.06
2023-03-05T23:55:21.834Z,4.99
2023-03-05T23:58:30.644Z,4.95
